createdAt,value
2023-08-14T00:00:15.343Z,38.90
2023-08-14T00:15:15.655Z,38.90
2023-08-14T00:30:15.991Z,38.70
2023-08-14T00:45:18.822Z,38.60
2023-08-14T01:00:16.695Z,38.60
2023-08-14T01:15:17.140Z,38.70
2023-08-14T01:30:17.228Z,38.60
2023-08-14T01:45:20.150Z,38.50
2023-08-14T02:00:17.923Z,37.80
2023-08-14T02:15:18.207Z,37.50
2023-08-14T02:30:18.579Z,37.30
2023-08-14T02:45:18.936Z,37.30
2023-08-14T03:00:20.570Z,37.50
2023-08-14T03:15:19.540Z,37.60
2023-08-14T03:30:19.955Z,37.60
2023-08-14T03:45:20.141Z,37.50
2023-08-14T04:00:20.517Z,37.50
2023-08-14T04:15:20.838Z,37.50
2023-08-14T04:30:21.101Z,37.50
2023-08-14T04:45:21.406Z,37.70
2023-08-14T05:00:23.385Z,37.70
2023-08-14T05:15:22.076Z,37.70
2023-08-14T05:30:22.474Z,37.90
2023-08-14T05:45:22.947Z,38.10
2023-08-14T06:00:23.278Z,38.20
2023-08-14T06:15:23.487Z,38.40
2023-08-14T06:30:24.888Z,38.50
2023-08-14T06:45:24.121Z,38.50
2023-08-14T07:00:24.362Z,38.60
2023-08-14T07:15:26.253Z,38.70
2023-08-14T07:30:25.579Z,38.90
2023-08-14T07:45:25.297Z,39.10
2023-08-14T08:00:25.614Z,39.50
2023-08-14T08:15:26.114Z,39.80
2023-08-14T08:30:26.348Z,40.10
2023-08-14T08:45:26.882Z,40.30
2023-08-14T09:00:26.842Z,40.50
2023-08-14T09:15:32.723Z,40.60
2023-08-14T09:30:27.699Z,40.90
2023-08-14T09:45:27.927Z,41.20
2023-08-14T10:00:28.160Z,41.40
2023-08-14T10:15:30.226Z,41.80
2023-08-14T10:30:28.957Z,41.70
2023-08-14T10:45:29.191Z,42.10
2023-08-14T11:00:29.475Z,42.30
2023-08-14T11:15:34.461Z,42.60
2023-08-14T11:45:31.208Z,46.10
2023-08-14T12:00:34.955Z,47.20
2023-08-14T12:30:31.923Z,47.40
2023-08-14T12:45:32.210Z,46.30
2023-08-14T13:00:33.220Z,45.90
2023-08-14T13:15:32.922Z,45.70
2023-08-14T13:30:33.600Z,45.40
2023-08-14T13:45:33.489Z,45.10
2023-08-14T14:37:30.628Z,45.20
2023-08-14T14:52:32.008Z,45.40
2023-08-14T15:07:29.798Z,45.10
2023-08-14T15:22:30.424Z,45.30
2023-08-14T15:37:30.470Z,45.70
2023-08-14T15:52:38.717Z,45.50
2023-08-14T16:07:31.049Z,45.20
2023-08-14T16:22:31.555Z,45.00
2023-08-14T16:37:31.651Z,45.00
2023-08-14T16:52:32.286Z,45.10
2023-08-14T17:07:32.321Z,44.80
2023-08-14T17:22:32.904Z,44.60
2023-08-14T17:37:33.137Z,45.00
2023-08-14T17:52:33.230Z,44.80
2023-08-14T18:07:33.555Z,44.40
2023-08-14T18:22:33.989Z,44.00
2023-08-14T18:37:34.186Z,43.60
2023-08-14T18:52:34.810Z,43.30
2023-08-14T19:07:35.048Z,42.90
2023-08-14T19:22:36.235Z,42.70
2023-08-14T19:37:35.607Z,42.50
2023-08-14T19:52:35.818Z,42.50
2023-08-14T20:07:38.828Z,42.60
2023-08-14T20:22:42.355Z,42.50
2023-08-14T20:37:38.132Z,42.30
2023-08-14T20:52:56.498Z,42.10
2023-08-14T21:07:57.367Z,42.00
2023-08-14T21:22:43.771Z,41.80
2023-08-14T21:37:43.912Z,41.70
2023-08-14T21:52:44.299Z,41.60
2023-08-14T22:07:44.647Z,41.50
2023-08-14T22:22:46.399Z,41.40
2023-08-14T22:37:46.592Z,41.30
2023-08-14T22:52:45.531Z,41.20
2023-08-14T23:07:45.870Z,41.10
2023-08-14T23:22:48.987Z,40.90
2023-08-14T23:37:46.484Z,40.80
2023-08-14T23:52:48.087Z,40.70
